createdAt,value
2022-10-05T00:01:53.178Z,7.50
2022-10-05T00:04:23.376Z,7.43
2022-10-05T00:06:55.994Z,7.49
2022-10-05T00:09:23.671Z,7.46
2022-10-05T00:11:52.041Z,7.44
2022-10-05T00:14:26.574Z,7.41
2022-10-05T00:16:53.956Z,7.34
2022-10-05T00:19:26.372Z,7.33
2022-10-05T00:21:56.805Z,7.30
2022-10-05T00:24:23.994Z,7.30
2022-10-05T00:26:55.573Z,7.29
2022-10-05T00:29:26.806Z,7.29
2022-10-05T00:31:54.173Z,7.35
2022-10-05T00:34:21.510Z,7.35
2022-10-05T00:36:49.041Z,7.38
2022-10-05T00:39:18.427Z,7.37
2022-10-05T00:42:04.687Z,7.40
2022-10-05T00:44:41.102Z,7.37
2022-10-05T00:47:28.780Z,7.31
2022-10-05T00:50:18.160Z,7.26
2022-10-05T00:52:56.091Z,7.27
2022-10-05T00:55:34.940Z,7.28
2022-10-05T00:58:15.661Z,7.28
2022-10-05T01:00:54.814Z,7.28
2022-10-05T01:03:25.828Z,7.24
2022-10-05T01:06:05.709Z,7.18
2022-10-05T01:08:42.831Z,7.15
2022-10-05T01:11:19.013Z,7.07
2022-10-05T01:13:55.076Z,7.09
2022-10-05T01:16:30.342Z,7.09
2022-10-05T01:19:07.084Z,7.05
2022-10-05T01:21:41.760Z,7.02
2022-10-05T01:24:37.196Z,7.03
2022-10-05T01:27:41.714Z,7.03
2022-10-05T01:30:13.308Z,7.00
2022-10-05T01:32:48.061Z,7.01
2022-10-05T01:35:25.458Z,6.99
2022-10-05T01:38:02.555Z,6.97
2022-10-05T01:40:35.723Z,6.90
2022-10-05T01:43:13.960Z,6.80
2022-10-05T01:45:54.047Z,6.72
2022-10-05T01:48:33.378Z,6.64
2022-10-05T01:51:12.117Z,6.60
2022-10-05T01:53:55.017Z,6.62
2022-10-05T01:56:29.968Z,6.61
2022-10-05T01:59:16.301Z,6.62
2022-10-05T02:01:54.048Z,6.58
2022-10-05T02:04:59.819Z,6.51
2022-10-05T02:07:21.550Z,6.44
2022-10-05T02:09:53.083Z,6.46
2022-10-05T02:12:25.423Z,6.41
2022-10-05T02:15:03.477Z,6.42
2022-10-05T02:17:38.921Z,6.40
2022-10-05T02:20:11.321Z,6.33
2022-10-05T02:22:42.489Z,6.35
2022-10-05T02:25:14.417Z,6.36
2022-10-05T02:27:47.973Z,6.35
2022-10-05T02:30:19.174Z,6.26
2022-10-05T02:32:54.401Z,6.24
2022-10-05T02:35:23.160Z,6.28
2022-10-05T02:38:03.374Z,6.28
2022-10-05T02:40:45.304Z,6.29
2022-10-05T02:43:22.578Z,6.31
2022-10-05T02:46:00.299Z,6.23
2022-10-05T02:48:36.966Z,6.30
2022-10-05T02:51:15.577Z,6.33
2022-10-05T02:53:48.263Z,6.37
2022-10-05T02:56:22.979Z,6.40
2022-10-05T02:58:59.137Z,6.36
2022-10-05T03:01:33.300Z,6.34
2022-10-05T03:04:11.021Z,6.35
2022-10-05T03:06:45.044Z,6.37
2022-10-05T03:09:16.943Z,6.38
2022-10-05T03:11:51.400Z,6.42
2022-10-05T03:14:24.592Z,6.37
2022-10-05T03:17:07.030Z,6.33
2022-10-05T03:19:55.782Z,6.35
2022-10-05T03:22:33.089Z,6.27
2022-10-05T03:25:26.163Z,6.25
2022-10-05T03:28:00.382Z,6.20
2022-10-05T03:30:33.432Z,6.18
2022-10-05T03:33:10.621Z,6.10
2022-10-05T03:35:49.255Z,6.12
2022-10-05T03:38:23.922Z,6.17
2022-10-05T03:40:57.635Z,6.20
2022-10-05T03:43:52.079Z,6.17
2022-10-05T03:46:25.883Z,6.08
2022-10-05T03:49:04.706Z,6.24
2022-10-05T03:51:35.510Z,6.11
2022-10-05T03:54:12.586Z,6.19
2022-10-05T03:56:45.572Z,6.15
2022-10-05T03:59:18.405Z,6.21
2022-10-05T04:01:51.569Z,6.18
2022-10-05T04:04:26.791Z,6.23
2022-10-05T04:06:55.668Z,6.19
2022-10-05T04:09:28.247Z,6.19
2022-10-05T04:11:59.475Z,6.23
2022-10-05T04:14:32.641Z,6.18
2022-10-05T04:17:06.261Z,6.16
2022-10-05T04:19:40.781Z,6.17
2022-10-05T04:22:13.483Z,6.14
2022-10-05T04:24:47.598Z,6.03
2022-10-05T04:27:18.509Z,6.10
2022-10-05T04:29:54.290Z,6.14
2022-10-05T04:32:31.478Z,6.06
2022-10-05T04:35:17.642Z,6.11
2022-10-05T04:37:52.493Z,6.08
2022-10-05T04:40:37.342Z,6.20
2022-10-05T04:43:13.335Z,6.17
2022-10-05T04:46:13.948Z,6.22
2022-10-05T04:48:55.887Z,6.21
2022-10-05T04:51:38.432Z,6.26
2022-10-05T04:54:19.850Z,6.26
2022-10-05T04:56:53.401Z,6.26
2022-10-05T04:59:55.563Z,6.30
2022-10-05T05:02:33.343Z,6.31
2022-10-05T05:05:23.527Z,6.24
2022-10-05T05:08:07.310Z,6.33
2022-10-05T05:10:50.275Z,6.27
2022-10-05T05:13:42.254Z,6.34
2022-10-05T05:16:17.934Z,6.33
2022-10-05T05:19:18.499Z,6.36
2022-10-05T05:21:54.513Z,6.24
2022-10-05T05:24:32.773Z,6.33
2022-10-05T05:27:14.231Z,6.33
2022-10-05T05:29:52.932Z,6.31
2022-10-05T05:32:33.458Z,6.43
2022-10-05T05:35:25.241Z,6.32
2022-10-05T05:38:01.368Z,6.36
2022-10-05T05:40:34.719Z,6.40
2022-10-05T05:43:08.697Z,6.37
2022-10-05T05:45:41.877Z,6.36
2022-10-05T05:48:20.451Z,6.33
2022-10-05T05:50:56.540Z,6.34
2022-10-05T05:53:30.007Z,6.38
2022-10-05T05:56:04.738Z,6.41
2022-10-05T05:58:37.332Z,6.42
2022-10-05T06:01:07.179Z,6.42
2022-10-05T06:03:42.840Z,6.44
2022-10-05T06:06:15.147Z,6.42
2022-10-05T06:08:47.715Z,6.52
2022-10-05T06:11:31.159Z,6.54
2022-10-05T06:14:05.332Z,6.56
2022-10-05T06:16:39.499Z,6.55
2022-10-05T06:19:12.344Z,6.56
2022-10-05T06:21:44.717Z,6.55
2022-10-05T06:24:16.173Z,6.69
2022-10-05T06:27:13.069Z,6.69
2022-10-05T06:29:58.245Z,6.73
2022-10-05T06:32:31.260Z,6.72
2022-10-05T06:35:08.673Z,6.80
2022-10-05T06:37:55.369Z,6.88
2022-10-05T06:40:38.994Z,6.98
2022-10-05T06:43:21.501Z,7.05
2022-10-05T06:46:30.359Z,7.18
2022-10-05T06:49:29.783Z,7.26
2022-10-05T06:52:26.411Z,7.22
2022-10-05T06:55:13.880Z,7.12
2022-10-05T06:57:52.433Z,7.15
2022-10-05T07:00:24.903Z,7.16
2022-10-05T07:03:01.781Z,7.12
2022-10-05T07:05:43.711Z,7.14
2022-10-05T07:08:16.270Z,7.14
2022-10-05T07:10:59.017Z,7.17
2022-10-05T07:14:02.027Z,7.14
2022-10-05T07:16:40.501Z,7.17
2022-10-05T07:19:24.963Z,7.24
2022-10-05T07:22:17.953Z,7.36
2022-10-05T07:24:58.288Z,7.42
2022-10-05T07:27:30.551Z,7.51
2022-10-05T07:30:02.024Z,7.51
2022-10-05T07:32:38.310Z,7.61
2022-10-05T07:35:34.150Z,7.50
2022-10-05T07:38:10.619Z,7.45
2022-10-05T07:40:45.324Z,7.44
2022-10-05T07:43:51.139Z,7.42
2022-10-05T07:46:26.793Z,7.47
2022-10-05T07:49:03.472Z,7.39
2022-10-05T07:51:37.471Z,7.41
2022-10-05T07:54:16.106Z,7.44
2022-10-05T07:56:46.458Z,7.33
2022-10-05T07:59:23.357Z,7.43
2022-10-05T08:02:01.816Z,7.39
2022-10-05T08:04:41.593Z,7.45
2022-10-05T08:07:16.320Z,7.48
2022-10-05T08:09:50.691Z,7.60
2022-10-05T08:12:31.917Z,7.70
2022-10-05T08:15:06.019Z,7.82
2022-10-05T08:17:46.792Z,7.99
2022-10-05T08:20:29.898Z,8.10
2022-10-05T08:23:04.866Z,8.16
2022-10-05T08:25:45.433Z,8.13
2022-10-05T08:28:21.059Z,8.11
2022-10-05T08:31:01.599Z,8.14
2022-10-05T08:33:34.829Z,8.23
2022-10-05T08:36:08.838Z,8.37
2022-10-05T08:38:36.739Z,8.42
2022-10-05T08:41:35.094Z,8.49
2022-10-05T08:44:29.093Z,8.63
2022-10-05T08:47:21.781Z,8.81
2022-10-05T08:50:18.719Z,9.11
2022-10-05T08:53:12.350Z,9.33
2022-10-05T08:55:52.169Z,9.32
2022-10-05T08:58:53.770Z,9.26
2022-10-05T09:01:29.212Z,9.36
2022-10-05T09:04:22.522Z,9.40
2022-10-05T09:07:09.173Z,9.45
2022-10-05T09:10:13.496Z,9.58
2022-10-05T09:12:58.675Z,9.64
2022-10-05T09:15:59.002Z,9.76
2022-10-05T09:18:49.999Z,9.96
2022-10-05T09:21:32.998Z,10.08
2022-10-05T09:24:19.575Z,10.12
2022-10-05T09:27:00.759Z,10.27
2022-10-05T09:30:16.676Z,10.47
2022-10-05T09:33:27.150Z,10.73
2022-10-05T09:36:17.464Z,10.85
2022-10-05T09:39:26.542Z,10.94
2022-10-05T09:42:26.909Z,10.82
2022-10-05T09:45:44.476Z,10.89
2022-10-05T09:48:53.932Z,10.92
2022-10-05T09:51:58.898Z,11.02
2022-10-05T09:55:03.059Z,10.81
2022-10-05T09:58:20.416Z,10.07
2022-10-05T10:01:29.176Z,9.25
2022-10-05T10:04:32.733Z,8.72
2022-10-05T10:07:44.012Z,8.51
2022-10-05T10:10:44.224Z,8.74
2022-10-05T10:13:35.498Z,8.94
2022-10-05T10:16:17.221Z,8.98
2022-10-05T10:19:12.670Z,8.92
2022-10-05T10:22:27.304Z,8.85
2022-10-05T10:25:21.592Z,8.83
2022-10-05T10:28:35.731Z,8.89
2022-10-05T10:31:26.599Z,8.90
2022-10-05T10:34:10.170Z,8.82
2022-10-05T10:37:11.040Z,8.79
2022-10-05T10:40:01.101Z,8.87
2022-10-05T10:42:37.781Z,8.87
2022-10-05T10:45:40.588Z,9.13
2022-10-05T10:48:11.296Z,9.21
2022-10-05T10:51:00.799Z,9.27
2022-10-05T10:54:15.149Z,9.29
2022-10-05T10:56:55.481Z,9.17
2022-10-05T10:59:56.249Z,9.08
2022-10-05T11:02:44.460Z,9.09
2022-10-05T11:05:43.027Z,9.18
2022-10-05T11:08:50.858Z,9.47
2022-10-05T11:11:38.015Z,10.00
2022-10-05T11:14:29.875Z,10.36
2022-10-05T11:17:22.040Z,10.76
2022-10-05T11:20:04.846Z,10.99
2022-10-05T11:22:55.728Z,10.90
2022-10-05T11:25:49.324Z,10.73
2022-10-05T11:28:35.861Z,10.61
2022-10-05T11:31:39.321Z,10.49
2022-10-05T11:34:38.633Z,10.24
2022-10-05T11:37:36.443Z,10.16
2022-10-05T11:40:36.486Z,10.13
2022-10-05T11:43:57.234Z,10.06
2022-10-05T11:46:30.894Z,9.91
2022-10-05T11:49:12.327Z,9.99
2022-10-05T11:51:48.678Z,10.18
2022-10-05T11:54:46.579Z,10.47
2022-10-05T11:57:25.617Z,10.60
2022-10-05T11:59:58.284Z,10.58
2022-10-05T12:02:48.171Z,10.52
2022-10-05T12:05:21.348Z,10.28
2022-10-05T12:08:01.996Z,10.03
2022-10-05T12:10:40.533Z,9.86
2022-10-05T12:13:19.479Z,9.75
2022-10-05T12:15:53.204Z,9.52
2022-10-05T12:18:40.645Z,9.37
2022-10-05T12:21:17.553Z,9.28
2022-10-05T12:23:52.424Z,9.32
2022-10-05T12:26:26.681Z,9.45
2022-10-05T12:29:00.974Z,9.56
2022-10-05T12:31:41.004Z,9.49
2022-10-05T12:34:18.297Z,9.45
2022-10-05T12:37:04.043Z,9.42
2022-10-05T12:39:39.769Z,9.43
2022-10-05T12:42:26.143Z,9.45
2022-10-05T12:45:09.323Z,9.45
2022-10-05T12:47:53.936Z,9.51
2022-10-05T12:50:28.439Z,9.47
2022-10-05T12:53:10.733Z,9.52
2022-10-05T12:55:48.034Z,10.01
2022-10-05T12:58:26.690Z,10.42
2022-10-05T13:01:01.574Z,10.59
2022-10-05T13:03:34.560Z,10.94
2022-10-05T13:06:15.572Z,11.52
2022-10-05T13:08:50.414Z,11.85
2022-10-05T13:11:25.074Z,11.97
2022-10-05T13:14:02.607Z,11.54
2022-10-05T13:16:38.627Z,11.10
2022-10-05T13:19:26.352Z,10.80
2022-10-05T13:22:04.627Z,10.33
2022-10-05T13:24:38.305Z,10.08
2022-10-05T13:27:13.862Z,9.87
2022-10-05T13:29:51.057Z,9.74
2022-10-05T13:32:24.677Z,9.72
2022-10-05T13:35:05.739Z,9.54
2022-10-05T13:37:46.552Z,9.39
2022-10-05T13:40:22.322Z,9.36
2022-10-05T13:42:55.836Z,9.43
2022-10-05T13:45:27.255Z,9.51
2022-10-05T13:48:12.705Z,9.54
2022-10-05T13:50:49.849Z,9.59
2022-10-05T13:53:24.020Z,9.58
2022-10-05T13:55:59.704Z,9.51
2022-10-05T13:58:37.096Z,9.43
2022-10-05T14:01:14.966Z,9.37
2022-10-05T14:04:06.191Z,9.37
2022-10-05T14:06:36.973Z,9.35
2022-10-05T14:09:04.529Z,9.30
2022-10-05T14:11:34.972Z,9.30
2022-10-05T14:14:13.555Z,9.31
2022-10-05T14:16:51.632Z,9.24
2022-10-05T14:19:24.398Z,9.27
2022-10-05T14:21:59.089Z,9.18
2022-10-05T14:24:43.695Z,9.12
2022-10-05T14:27:21.228Z,9.05
2022-10-05T14:29:56.873Z,8.94
2022-10-05T14:32:27.485Z,8.95
2022-10-05T14:35:15.541Z,8.89
2022-10-05T14:37:51.215Z,8.70
2022-10-05T14:40:25.238Z,8.59
2022-10-05T14:42:53.449Z,8.51
2022-10-05T14:45:22.461Z,8.42
2022-10-05T14:47:52.910Z,8.31
2022-10-05T14:50:26.240Z,8.13
2022-10-05T14:53:17.227Z,8.08
2022-10-05T14:56:01.323Z,8.02
2022-10-05T14:58:43.076Z,8.06
2022-10-05T15:01:17.850Z,8.11
2022-10-05T15:03:57.528Z,8.11
2022-10-05T15:06:33.266Z,8.18
2022-10-05T15:09:17.672Z,8.27
2022-10-05T15:11:51.402Z,8.25
2022-10-05T15:14:23.194Z,8.28
2022-10-05T15:16:53.770Z,8.31
2022-10-05T15:19:27.184Z,8.36
2022-10-05T15:22:18.769Z,8.33
2022-10-05T15:24:57.918Z,8.26
2022-10-05T15:27:29.921Z,8.19
2022-10-05T15:30:09.344Z,8.16
2022-10-05T15:32:57.445Z,8.21
2022-10-05T15:36:03.145Z,8.19
2022-10-05T15:38:37.578Z,8.19
2022-10-05T15:41:14.960Z,8.16
2022-10-05T15:43:50.479Z,8.13
2022-10-05T15:46:23.477Z,8.09
2022-10-05T15:49:00.970Z,8.15
2022-10-05T15:51:42.477Z,8.16
2022-10-05T15:54:40.821Z,8.23
2022-10-05T15:57:16.300Z,8.24
2022-10-05T15:59:54.296Z,8.37
2022-10-05T16:02:26.275Z,8.32
2022-10-05T16:05:07.804Z,8.35
2022-10-05T16:08:02.326Z,8.28
2022-10-05T16:10:37.582Z,8.22
2022-10-05T16:13:19.440Z,8.26
2022-10-05T16:15:56.081Z,8.23
2022-10-05T16:18:38.919Z,8.32
2022-10-05T16:21:15.553Z,8.38
2022-10-05T16:23:57.553Z,8.32
2022-10-05T16:26:33.873Z,8.22
2022-10-05T16:29:09.773Z,8.10
2022-10-05T16:31:47.273Z,8.09
2022-10-05T16:34:29.794Z,8.20
2022-10-05T16:37:04.822Z,8.22
2022-10-05T16:39:50.126Z,8.32
2022-10-05T16:42:34.952Z,8.39
2022-10-05T16:45:12.249Z,8.40
2022-10-05T16:47:49.914Z,8.41
2022-10-05T16:50:25.256Z,8.36
2022-10-05T16:52:59.079Z,8.22
2022-10-05T16:55:34.516Z,8.12
2022-10-05T16:58:06.250Z,8.11
2022-10-05T17:00:45.893Z,8.13
2022-10-05T17:03:27.367Z,8.18
2022-10-05T17:06:30.270Z,8.13
2022-10-05T17:09:16.947Z,8.08
2022-10-05T17:12:08.557Z,7.97
2022-10-05T17:14:47.357Z,7.89
2022-10-05T17:17:38.168Z,7.71
2022-10-05T17:20:20.372Z,7.65
2022-10-05T17:22:52.362Z,7.63
2022-10-05T17:25:27.709Z,7.61
2022-10-05T17:28:15.236Z,7.56
2022-10-05T17:30:54.297Z,7.51
2022-10-05T17:33:25.443Z,7.52
2022-10-05T17:36:11.532Z,7.41
2022-10-05T17:38:48.210Z,7.35
2022-10-05T17:41:18.915Z,7.38
2022-10-05T17:44:25.004Z,7.45
2022-10-05T17:46:54.977Z,7.43
2022-10-05T17:49:47.009Z,7.53
2022-10-05T17:52:44.803Z,7.62
2022-10-05T17:55:38.521Z,7.70
2022-10-05T17:59:02.365Z,7.67
2022-10-05T18:01:34.593Z,7.60
2022-10-05T18:04:42.390Z,7.57
2022-10-05T18:07:22.093Z,7.53
2022-10-05T18:09:58.214Z,7.57
2022-10-05T18:12:40.722Z,7.53
2022-10-05T18:15:31.235Z,7.51
2022-10-05T18:18:20.598Z,7.49
2022-10-05T18:21:22.979Z,7.54
2022-10-05T18:24:02.212Z,7.52
2022-10-05T18:26:37.934Z,7.48
2022-10-05T18:29:42.409Z,7.43
2022-10-05T18:32:22.918Z,7.33
2022-10-05T18:34:58.641Z,7.35
2022-10-05T18:37:45.014Z,7.36
2022-10-05T18:40:31.787Z,7.28
2022-10-05T18:43:10.160Z,7.22
2022-10-05T18:45:50.217Z,7.14
2022-10-05T18:48:26.320Z,7.10
2022-10-05T18:51:03.033Z,7.10
2022-10-05T18:53:38.434Z,7.07
2022-10-05T18:56:19.479Z,7.08
2022-10-05T18:58:58.095Z,6.98
2022-10-05T19:01:51.540Z,7.11
2022-10-05T19:04:27.624Z,7.06
2022-10-05T19:07:07.619Z,7.08
2022-10-05T19:09:58.831Z,7.03
2022-10-05T19:12:41.291Z,7.01
2022-10-05T19:15:18.470Z,6.98
2022-10-05T19:18:05.711Z,6.93
2022-10-05T19:20:38.287Z,6.85
2022-10-05T19:23:27.135Z,6.86
2022-10-05T19:26:02.635Z,6.85
2022-10-05T19:28:34.441Z,6.84
2022-10-05T19:31:14.300Z,6.82
2022-10-05T19:34:05.212Z,6.76
2022-10-05T19:36:46.035Z,6.73
2022-10-05T19:39:22.192Z,6.66
2022-10-05T19:42:01.149Z,6.64
2022-10-05T19:44:44.403Z,6.63
2022-10-05T19:47:24.032Z,6.58
2022-10-05T19:49:59.624Z,6.49
2022-10-05T19:52:31.177Z,6.52
2022-10-05T19:55:12.102Z,6.58
2022-10-05T19:57:47.638Z,6.61
2022-10-05T20:00:21.584Z,6.63
2022-10-05T20:02:50.961Z,6.71
2022-10-05T20:05:18.923Z,6.78
2022-10-05T20:07:46.516Z,6.78
2022-10-05T20:10:29.419Z,6.75
2022-10-05T20:12:58.467Z,6.74
2022-10-05T20:15:46.237Z,6.69
2022-10-05T20:19:06.623Z,6.75
2022-10-05T20:21:38.830Z,6.74
2022-10-05T20:24:07.744Z,6.71
2022-10-05T20:26:59.648Z,6.72
2022-10-05T20:29:26.927Z,6.74
2022-10-05T20:31:54.242Z,6.73
2022-10-05T20:34:22.070Z,6.72
2022-10-05T20:36:49.826Z,6.72
2022-10-05T20:39:18.376Z,6.72
2022-10-05T20:41:47.099Z,6.69
2022-10-05T20:44:14.696Z,6.68
2022-10-05T20:46:42.150Z,6.67
2022-10-05T20:49:11.634Z,6.70
2022-10-05T20:51:40.305Z,6.67
2022-10-05T20:54:08.453Z,6.76
2022-10-05T20:56:35.819Z,6.76
2022-10-05T20:59:04.443Z,6.74
2022-10-05T21:01:32.006Z,6.76
2022-10-05T21:03:59.506Z,6.74
2022-10-05T21:06:29.511Z,6.72
2022-10-05T21:08:56.899Z,6.76
2022-10-05T21:11:24.285Z,6.79
2022-10-05T21:13:53.791Z,6.85
2022-10-05T21:16:23.210Z,6.99
2022-10-05T21:18:51.526Z,7.04
2022-10-05T21:21:19.376Z,7.05
2022-10-05T21:23:47.766Z,7.15
2022-10-05T21:26:15.923Z,7.16
2022-10-05T21:28:43.270Z,7.19
2022-10-05T21:31:10.943Z,7.18
2022-10-05T21:33:39.585Z,7.15
2022-10-05T21:36:06.900Z,7.11
2022-10-05T21:38:34.544Z,7.09
2022-10-05T21:41:01.979Z,7.15
2022-10-05T21:43:29.867Z,7.31
2022-10-05T21:45:58.154Z,7.37
2022-10-05T21:48:26.193Z,7.38
2022-10-05T21:50:55.390Z,7.49
2022-10-05T21:53:30.088Z,7.48
2022-10-05T21:56:02.809Z,7.58
2022-10-05T21:58:31.304Z,7.64
2022-10-05T22:00:58.869Z,7.63
2022-10-05T22:03:26.579Z,7.50
2022-10-05T22:05:55.574Z,7.40
2022-10-05T22:08:25.497Z,7.29
2022-10-05T22:10:54.894Z,7.26
2022-10-05T22:13:26.130Z,7.22
2022-10-05T22:15:55.410Z,7.21
2022-10-05T22:18:24.047Z,7.21
2022-10-05T22:20:53.303Z,7.21
2022-10-05T22:23:21.999Z,7.24
2022-10-05T22:25:49.586Z,7.29
2022-10-05T22:28:16.986Z,7.36
2022-10-05T22:30:45.347Z,7.41
2022-10-05T22:33:13.384Z,7.38
2022-10-05T22:35:40.867Z,7.42
2022-10-05T22:38:08.038Z,7.43
2022-10-05T22:40:37.061Z,7.42
2022-10-05T22:43:04.823Z,7.43
2022-10-05T22:45:32.835Z,7.37
2022-10-05T22:48:00.250Z,7.36
2022-10-05T22:50:27.731Z,7.36
2022-10-05T22:52:55.189Z,7.34
2022-10-05T22:55:22.466Z,7.30
2022-10-05T22:57:51.167Z,7.25
2022-10-05T23:00:18.592Z,7.28
2022-10-05T23:02:45.941Z,7.32
2022-10-05T23:05:14.676Z,7.30
2022-10-05T23:07:44.032Z,7.25
2022-10-05T23:10:14.821Z,7.27
2022-10-05T23:12:42.477Z,7.28
2022-10-05T23:15:11.792Z,7.26
2022-10-05T23:17:39.482Z,7.25
2022-10-05T23:20:07.641Z,7.26
2022-10-05T23:22:38.273Z,7.32
2022-10-05T23:25:07.382Z,7.42
2022-10-05T23:27:38.738Z,7.48
2022-10-05T23:30:08.793Z,7.54
2022-10-05T23:32:39.930Z,7.57
2022-10-05T23:35:08.942Z,7.62
2022-10-05T23:37:39.377Z,7.67
2022-10-05T23:40:08.633Z,7.69
2022-10-05T23:42:36.099Z,7.74
2022-10-05T23:45:03.757Z,7.76
2022-10-05T23:47:31.317Z,7.88
2022-10-05T23:50:00.899Z,7.85
2022-10-05T23:52:28.251Z,7.75
2022-10-05T23:54:55.759Z,7.73
2022-10-05T23:57:23.048Z,7.66
2022-10-05T23:59:50.540Z,7.65
